sensor_id;sensor_type;location;lat;lon;timestamp;temperature;humidity
11043;DHT22;5574;48.786;10.120;2022-10-31T00:01:16;11.90;99.90
11043;DHT22;5574;48.786;10.120;2022-10-31T00:03:43;11.90;99.90
11043;DHT22;5574;48.786;10.120;2022-10-31T00:06:10;11.90;99.90
11043;DHT22;5574;48.786;10.120;2022-10-31T00:08:37;11.90;99.90
11043;DHT22;5574;48.786;10.120;2022-10-31T00:11:07;11.80;99.90
11043;DHT22;5574;48.786;10.120;2022-10-31T00:13:34;11.70;99.90
11043;DHT22;5574;48.786;10.120;2022-10-31T00:16:02;11.70;99.90
11043;DHT22;5574;48.786;10.120;2022-10-31T00:18:29;11.70;99.90
11043;DHT22;5574;48.786;10.120;2022-10-31T00:20:59;11.70;99.90
11043;DHT22;5574;48.786;10.120;2022-10-31T00:23:26;11.70;99.90
11043;DHT22;5574;48.786;10.120;2022-10-31T00:25:53;11.70;99.90
11043;DHT22;5574;48.786;10.120;2022-10-31T00:28:20;11.70;99.90
11043;DHT22;5574;48.786;10.120;2022-10-31T00:30:46;11.70;99.90
11043;DHT22;5574;48.786;10.120;2022-10-31T00:33:14;11.70;99.90
11043;DHT22;5574;48.786;10.120;2022-10-31T00:35:41;11.70;99.90
11043;DHT22;5574;48.786;10.120;2022-10-31T00:38:08;11.70;99.90
11043;DHT22;5574;48.786;10.120;2022-10-31T00:40:34;11.70;99.90
11043;DHT22;5574;48.786;10.120;2022-10-31T00:43:01;11.70;99.90
11043;DHT22;5574;48.786;10.120;2022-10-31T00:45:28;11.80;99.90
11043;DHT22;5574;48.786;10.120;2022-10-31T00:47:54;11.70;99.90
11043;DHT22;5574;48.786;10.120;2022-10-31T00:50:22;11.70;99.90
11043;DHT22;5574;48.786;10.120;2022-10-31T00:52:49;11.70;99.90
11043;DHT22;5574;48.786;10.120;2022-10-31T00:55:16;11.70;99.90
11043;DHT22;5574;48.786;10.120;2022-10-31T00:57:44;11.80;99.90
11043;DHT22;5574;48.786;10.120;2022-10-31T01:00:12;11.80;99.90
11043;DHT22;5574;48.786;10.120;2022-10-31T01:02:39;11.70;99.90
11043;DHT22;5574;48.786;10.120;2022-10-31T01:05:06;11.80;99.90
11043;DHT22;5574;48.786;10.120;2022-10-31T01:07:37;11.70;99.90
11043;DHT22;5574;48.786;10.120;2022-10-31T01:10:05;11.70;99.90
11043;DHT22;5574;48.786;10.120;2022-10-31T01:12:36;11.70;99.90
11043;DHT22;5574;48.786;10.120;2022-10-31T01:15:03;11.60;99.90
11043;DHT22;5574;48.786;10.120;2022-10-31T01:17:30;11.60;99.90
11043;DHT22;5574;48.786;10.120;2022-10-31T01:19:57;11.60;99.90
11043;DHT22;5574;48.786;10.120;2022-10-31T01:22:24;11.50;99.90
11043;DHT22;5574;48.786;10.120;2022-10-31T01:24:52;11.40;99.90
11043;DHT22;5574;48.786;10.120;2022-10-31T01:27:18;11.50;99.90
11043;DHT22;5574;48.786;10.120;2022-10-31T01:29:45;11.50;99.90
11043;DHT22;5574;48.786;10.120;2022-10-31T01:32:12;11.50;99.90
11043;DHT22;5574;48.786;10.120;2022-10-31T01:34:39;11.50;99.90
11043;DHT22;5574;48.786;10.120;2022-10-31T01:37:05;11.40;99.90
11043;DHT22;5574;48.786;10.120;2022-10-31T01:39:32;11.50;99.90
11043;DHT22;5574;48.786;10.120;2022-10-31T01:42:00;11.40;99.90
11043;DHT22;5574;48.786;10.120;2022-10-31T01:44:52;11.30;99.90
11043;DHT22;5574;48.786;10.120;2022-10-31T01:47:25;11.20;99.90
11043;DHT22;5574;48.786;10.120;2022-10-31T01:49:57;11.20;99.90
11043;DHT22;5574;48.786;10.120;2022-10-31T01:52:29;11.20;99.90
11043;DHT22;5574;48.786;10.120;2022-10-31T01:54:59;11.20;99.90
11043;DHT22;5574;48.786;10.120;2022-10-31T01:57:29;11.10;99.90
11043;DHT22;5574;48.786;10.120;2022-10-31T02:00:00;11.00;99.90
11043;DHT22;5574;48.786;10.120;2022-10-31T02:02:27;10.90;99.90
11043;DHT22;5574;48.786;10.120;2022-10-31T02:04:56;10.80;99.90
11043;DHT22;5574;48.786;10.120;2022-10-31T02:07:27;10.90;99.90
11043;DHT22;5574;48.786;10.120;2022-10-31T02:09:57;10.90;99.90
11043;DHT22;5574;48.786;10.120;2022-10-31T02:12:24;10.90;99.90
11043;DHT22;5574;48.786;10.120;2022-10-31T02:14:52;10.90;99.90
11043;DHT22;5574;48.786;10.120;2022-10-31T02:17:19;10.90;99.90
11043;DHT22;5574;48.786;10.120;2022-10-31T02:19:51;10.80;99.90
11043;DHT22;5574;48.786;10.120;2022-10-31T02:22:27;10.80;99.90
11043;DHT22;5574;48.786;10.120;2022-10-31T02:25:17;10.80;99.90
11043;DHT22;5574;48.786;10.120;2022-10-31T02:28:24;10.80;99.90
11043;DHT22;5574;48.786;10.120;2022-10-31T02:31:01;10.80;99.90
11043;DHT22;5574;48.786;10.120;2022-10-31T02:33:40;10.70;99.90
11043;DHT22;5574;48.786;10.120;2022-10-31T02:36:14;10.60;99.90
11043;DHT22;5574;48.786;10.120;2022-10-31T02:38:50;10.70;99.90
11043;DHT22;5574;48.786;10.120;2022-10-31T02:41:22;10.70;99.90
11043;DHT22;5574;48.786;10.120;2022-10-31T02:43:57;10.70;99.90
11043;DHT22;5574;48.786;10.120;2022-10-31T02:46:29;10.70;99.90
11043;DHT22;5574;48.786;10.120;2022-10-31T02:49:01;10.70;99.90
11043;DHT22;5574;48.786;10.120;2022-10-31T02:51:30;10.70;99.90
11043;DHT22;5574;48.786;10.120;2022-10-31T02:53:57;10.70;99.90
11043;DHT22;5574;48.786;10.120;2022-10-31T02:56:23;10.60;99.90
11043;DHT22;5574;48.786;10.120;2022-10-31T02:58:53;10.60;99.90
11043;DHT22;5574;48.786;10.120;2022-10-31T03:01:46;10.60;99.90
11043;DHT22;5574;48.786;10.120;2022-10-31T03:04:31;10.60;99.90
11043;DHT22;5574;48.786;10.120;2022-10-31T03:07:09;10.60;99.90
11043;DHT22;5574;48.786;10.120;2022-10-31T03:09:42;10.60;99.90
11043;DHT22;5574;48.786;10.120;2022-10-31T03:12:14;10.50;99.90
11043;DHT22;5574;48.786;10.120;2022-10-31T03:14:43;10.60;99.90
11043;DHT22;5574;48.786;10.120;2022-10-31T03:17:20;10.60;99.90
11043;DHT22;5574;48.786;10.120;2022-10-31T03:19:52;10.60;99.90
11043;DHT22;5574;48.786;10.120;2022-10-31T03:22:22;10.50;99.90
11043;DHT22;5574;48.786;10.120;2022-10-31T03:24:50;10.50;99.90
11043;DHT22;5574;48.786;10.120;2022-10-31T03:27:20;10.50;99.90
11043;DHT22;5574;48.786;10.120;2022-10-31T03:29:48;10.40;99.90
11043;DHT22;5574;48.786;10.120;2022-10-31T03:32:20;10.40;99.90
11043;DHT22;5574;48.786;10.120;2022-10-31T03:34:49;10.40;99.90
11043;DHT22;5574;48.786;10.120;2022-10-31T03:37:19;10.30;99.90
11043;DHT22;5574;48.786;10.120;2022-10-31T03:39:48;10.30;99.90
11043;DHT22;5574;48.786;10.120;2022-10-31T03:42:17;10.30;99.90
11043;DHT22;5574;48.786;10.120;2022-10-31T03:44:48;10.30;99.90
11043;DHT22;5574;48.786;10.120;2022-10-31T03:47:19;10.40;99.90
11043;DHT22;5574;48.786;10.120;2022-10-31T03:49:46;10.40;99.90
11043;DHT22;5574;48.786;10.120;2022-10-31T03:52:19;10.30;99.90
11043;DHT22;5574;48.786;10.120;2022-10-31T03:54:52;10.30;99.90
11043;DHT22;5574;48.786;10.120;2022-10-31T03:57:24;10.10;99.90
11043;DHT22;5574;48.786;10.120;2022-10-31T03:59:55;10.10;99.90
11043;DHT22;5574;48.786;10.120;2022-10-31T04:02:30;10.10;99.90
11043;DHT22;5574;48.786;10.120;2022-10-31T04:04:58;10.10;99.90
11043;DHT22;5574;48.786;10.120;2022-10-31T04:07:27;10.10;99.90
11043;DHT22;5574;48.786;10.120;2022-10-31T04:09:56;10.10;99.90
11043;DHT22;5574;48.786;10.120;2022-10-31T04:12:24;10.20;99.90
11043;DHT22;5574;48.786;10.120;2022-10-31T04:14:52;10.20;99.90
11043;DHT22;5574;48.786;10.120;2022-10-31T04:17:23;10.20;99.90
11043;DHT22;5574;48.786;10.120;2022-10-31T04:19:52;10.30;99.90
11043;DHT22;5574;48.786;10.120;2022-10-31T04:22:19;10.30;99.90
11043;DHT22;5574;48.786;10.120;2022-10-31T04:24:45;10.30;99.90
11043;DHT22;5574;48.786;10.120;2022-10-31T04:27:12;10.30;99.90
11043;DHT22;5574;48.786;10.120;2022-10-31T04:29:39;10.30;99.90
11043;DHT22;5574;48.786;10.120;2022-10-31T04:32:05;10.20;99.90
11043;DHT22;5574;48.786;10.120;2022-10-31T04:34:32;10.20;99.90
11043;DHT22;5574;48.786;10.120;2022-10-31T04:37:00;10.20;99.90
11043;DHT22;5574;48.786;10.120;2022-10-31T04:39:27;10.10;99.90
11043;DHT22;5574;48.786;10.120;2022-10-31T04:41:53;10.10;99.90
11043;DHT22;5574;48.786;10.120;2022-10-31T04:44:20;10.00;99.90
11043;DHT22;5574;48.786;10.120;2022-10-31T04:46:47;10.00;99.90
11043;DHT22;5574;48.786;10.120;2022-10-31T04:49:13;10.10;99.90
11043;DHT22;5574;48.786;10.120;2022-10-31T04:51:40;10.10;99.90
11043;DHT22;5574;48.786;10.120;2022-10-31T04:54:08;10.10;99.90
11043;DHT22;5574;48.786;10.120;2022-10-31T04:56:35;10.10;99.90
11043;DHT22;5574;48.786;10.120;2022-10-31T04:59:02;10.10;99.90
11043;DHT22;5574;48.786;10.120;2022-10-31T05:01:28;10.10;99.90
11043;DHT22;5574;48.786;10.120;2022-10-31T05:03:55;10.10;99.90
11043;DHT22;5574;48.786;10.120;2022-10-31T05:06:22;10.10;99.90
11043;DHT22;5574;48.786;10.120;2022-10-31T05:08:49;10.10;99.90
11043;DHT22;5574;48.786;10.120;2022-10-31T05:11:17;10.00;99.90
11043;DHT22;5574;48.786;10.120;2022-10-31T05:13:44;10.00;99.90
11043;DHT22;5574;48.786;10.120;2022-10-31T05:16:10;10.00;99.90
11043;DHT22;5574;48.786;10.120;2022-10-31T05:18:37;10.00;99.90
11043;DHT22;5574;48.786;10.120;2022-10-31T05:21:04;10.00;99.90
11043;DHT22;5574;48.786;10.120;2022-10-31T05:23:31;9.90;99.90
11043;DHT22;5574;48.786;10.120;2022-10-31T05:25:57;9.90;99.90
11043;DHT22;5574;48.786;10.120;2022-10-31T05:28:25;9.80;99.90
11043;DHT22;5574;48.786;10.120;2022-10-31T05:30:52;9.80;99.90
11043;DHT22;5574;48.786;10.120;2022-10-31T05:33:19;9.80;99.90
11043;DHT22;5574;48.786;10.120;2022-10-31T05:35:45;9.90;99.90
11043;DHT22;5574;48.786;10.120;2022-10-31T05:38:12;9.90;99.90
11043;DHT22;5574;48.786;10.120;2022-10-31T05:40:39;9.80;99.90
11043;DHT22;5574;48.786;10.120;2022-10-31T05:43:05;9.70;99.90
11043;DHT22;5574;48.786;10.120;2022-10-31T05:45:33;9.70;99.90
11043;DHT22;5574;48.786;10.120;2022-10-31T05:48:01;9.70;99.90
11043;DHT22;5574;48.786;10.120;2022-10-31T05:50:30;9.60;99.90
11043;DHT22;5574;48.786;10.120;2022-10-31T05:52:58;9.70;99.90
11043;DHT22;5574;48.786;10.120;2022-10-31T05:55:26;9.60;99.90
11043;DHT22;5574;48.786;10.120;2022-10-31T05:57:53;9.70;99.90
11043;DHT22;5574;48.786;10.120;2022-10-31T06:00:20;9.70;99.90
11043;DHT22;5574;48.786;10.120;2022-10-31T06:02:48;9.70;99.90
11043;DHT22;5574;48.786;10.120;2022-10-31T06:05:15;9.70;99.90
11043;DHT22;5574;48.786;10.120;2022-10-31T06:07:42;9.70;99.90
11043;DHT22;5574;48.786;10.120;2022-10-31T06:10:09;9.60;99.90
11043;DHT22;5574;48.786;10.120;2022-10-31T06:12:36;9.60;99.90
11043;DHT22;5574;48.786;10.120;2022-10-31T06:15:04;9.60;99.90
11043;DHT22;5574;48.786;10.120;2022-10-31T06:17:31;9.60;99.90
11043;DHT22;5574;48.786;10.120;2022-10-31T06:20:00;9.60;99.90
11043;DHT22;5574;48.786;10.120;2022-10-31T06:22:27;9.50;99.90
11043;DHT22;5574;48.786;10.120;2022-10-31T06:24:54;9.50;99.90
11043;DHT22;5574;48.786;10.120;2022-10-31T06:27:23;9.50;99.90
11043;DHT22;5574;48.786;10.120;2022-10-31T06:29:50;9.50;99.90
11043;DHT22;5574;48.786;10.120;2022-10-31T06:32:17;9.50;99.90
11043;DHT22;5574;48.786;10.120;2022-10-31T06:34:44;9.50;99.90
11043;DHT22;5574;48.786;10.120;2022-10-31T06:37:15;9.60;99.90
11043;DHT22;5574;48.786;10.120;2022-10-31T06:39:42;9.60;99.90
11043;DHT22;5574;48.786;10.120;2022-10-31T06:42:08;9.60;99.90
11043;DHT22;5574;48.786;10.120;2022-10-31T06:44:35;9.60;99.90
11043;DHT22;5574;48.786;10.120;2022-10-31T06:47:02;9.70;99.90
11043;DHT22;5574;48.786;10.120;2022-10-31T06:49:28;9.70;99.90
11043;DHT22;5574;48.786;10.120;2022-10-31T06:51:55;9.70;99.90
11043;DHT22;5574;48.786;10.120;2022-10-31T06:54:23;9.80;99.90
11043;DHT22;5574;48.786;10.120;2022-10-31T06:56:50;11.20;99.90
11043;DHT22;5574;48.786;10.120;2022-10-31T06:59:17;13.20;99.90
11043;DHT22;5574;48.786;10.120;2022-10-31T07:01:43;15.00;99.90
11043;DHT22;5574;48.786;10.120;2022-10-31T07:04:10;17.00;99.90
11043;DHT22;5574;48.786;10.120;2022-10-31T07:06:37;18.50;99.90
11043;DHT22;5574;48.786;10.120;2022-10-31T07:09:05;18.90;99.80
11043;DHT22;5574;48.786;10.120;2022-10-31T07:11:33;18.50;98.80
11043;DHT22;5574;48.786;10.120;2022-10-31T07:13:59;17.10;99.80
11043;DHT22;5574;48.786;10.120;2022-10-31T07:16:26;17.20;99.90
11043;DHT22;5574;48.786;10.120;2022-10-31T07:18:53;16.70;99.90
11043;DHT22;5574;48.786;10.120;2022-10-31T07:21:20;15.90;99.90
11043;DHT22;5574;48.786;10.120;2022-10-31T07:23:48;15.00;99.90
11043;DHT22;5574;48.786;10.120;2022-10-31T07:26:15;14.50;99.90
11043;DHT22;5574;48.786;10.120;2022-10-31T07:28:43;14.20;99.90
11043;DHT22;5574;48.786;10.120;2022-10-31T07:31:09;14.00;99.90
11043;DHT22;5574;48.786;10.120;2022-10-31T07:33:36;13.90;99.90
11043;DHT22;5574;48.786;10.120;2022-10-31T07:36:03;13.80;99.90
11043;DHT22;5574;48.786;10.120;2022-10-31T07:38:30;13.70;99.90
11043;DHT22;5574;48.786;10.120;2022-10-31T07:40:57;13.70;99.90
11043;DHT22;5574;48.786;10.120;2022-10-31T07:43:23;13.70;99.90
11043;DHT22;5574;48.786;10.120;2022-10-31T07:45:52;13.70;99.90
11043;DHT22;5574;48.786;10.120;2022-10-31T07:48:19;13.70;99.90
11043;DHT22;5574;48.786;10.120;2022-10-31T07:50:46;13.80;99.90
11043;DHT22;5574;48.786;10.120;2022-10-31T07:53:14;13.70;99.90
11043;DHT22;5574;48.786;10.120;2022-10-31T07:55:41;13.70;99.90
11043;DHT22;5574;48.786;10.120;2022-10-31T07:58:09;13.70;99.90
11043;DHT22;5574;48.786;10.120;2022-10-31T08:00:38;13.80;99.90
11043;DHT22;5574;48.786;10.120;2022-10-31T08:03:08;13.80;99.90
11043;DHT22;5574;48.786;10.120;2022-10-31T08:05:35;13.90;99.90
11043;DHT22;5574;48.786;10.120;2022-10-31T08:08:03;13.90;99.90
11043;DHT22;5574;48.786;10.120;2022-10-31T08:10:30;13.90;99.90
11043;DHT22;5574;48.786;10.120;2022-10-31T08:12:59;13.90;99.90
11043;DHT22;5574;48.786;10.120;2022-10-31T08:15:26;13.90;99.90
11043;DHT22;5574;48.786;10.120;2022-10-31T08:17:53;13.90;99.90
11043;DHT22;5574;48.786;10.120;2022-10-31T08:20:21;13.90;99.90
11043;DHT22;5574;48.786;10.120;2022-10-31T08:22:55;13.90;99.90
11043;DHT22;5574;48.786;10.120;2022-10-31T08:25:23;14.00;99.90
11043;DHT22;5574;48.786;10.120;2022-10-31T08:27:50;14.00;99.90
11043;DHT22;5574;48.786;10.120;2022-10-31T08:30:18;14.00;99.90
11043;DHT22;5574;48.786;10.120;2022-10-31T08:32:44;14.10;99.90
11043;DHT22;5574;48.786;10.120;2022-10-31T08:35:11;14.10;99.90
11043;DHT22;5574;48.786;10.120;2022-10-31T08:37:39;14.10;99.90
11043;DHT22;5574;48.786;10.120;2022-10-31T08:40:07;14.10;99.90
11043;DHT22;5574;48.786;10.120;2022-10-31T08:42:34;14.20;99.90
11043;DHT22;5574;48.786;10.120;2022-10-31T08:45:01;14.20;99.90
11043;DHT22;5574;48.786;10.120;2022-10-31T08:47:28;14.30;99.90
11043;DHT22;5574;48.786;10.120;2022-10-31T08:49:55;14.40;99.90
11043;DHT22;5574;48.786;10.120;2022-10-31T08:52:23;14.40;99.90
11043;DHT22;5574;48.786;10.120;2022-10-31T08:54:51;14.50;99.90
11043;DHT22;5574;48.786;10.120;2022-10-31T08:57:18;14.50;99.90
11043;DHT22;5574;48.786;10.120;2022-10-31T08:59:45;14.60;99.90
11043;DHT22;5574;48.786;10.120;2022-10-31T09:02:12;14.70;99.90
11043;DHT22;5574;48.786;10.120;2022-10-31T09:04:38;14.80;99.90
11043;DHT22;5574;48.786;10.120;2022-10-31T09:07:05;14.80;99.90
11043;DHT22;5574;48.786;10.120;2022-10-31T09:09:32;14.90;99.90
11043;DHT22;5574;48.786;10.120;2022-10-31T09:12:00;14.90;99.90
11043;DHT22;5574;48.786;10.120;2022-10-31T09:14:26;15.10;99.90
11043;DHT22;5574;48.786;10.120;2022-10-31T09:16:53;15.20;99.90
11043;DHT22;5574;48.786;10.120;2022-10-31T09:19:20;15.30;99.90
11043;DHT22;5574;48.786;10.120;2022-10-31T09:21:47;15.30;99.90
11043;DHT22;5574;48.786;10.120;2022-10-31T09:24:14;15.40;99.90
11043;DHT22;5574;48.786;10.120;2022-10-31T09:26:40;15.50;99.90
11043;DHT22;5574;48.786;10.120;2022-10-31T09:29:08;15.60;99.90
11043;DHT22;5574;48.786;10.120;2022-10-31T09:31:35;15.70;99.90
11043;DHT22;5574;48.786;10.120;2022-10-31T09:34:02;15.80;99.90
11043;DHT22;5574;48.786;10.120;2022-10-31T09:36:29;15.90;99.90
11043;DHT22;5574;48.786;10.120;2022-10-31T09:38:56;15.90;99.90
11043;DHT22;5574;48.786;10.120;2022-10-31T09:41:29;16.00;99.90
11043;DHT22;5574;48.786;10.120;2022-10-31T09:44:01;16.00;99.90
11043;DHT22;5574;48.786;10.120;2022-10-31T09:46:44;16.10;99.90
11043;DHT22;5574;48.786;10.120;2022-10-31T09:49:27;16.20;99.90
11043;DHT22;5574;48.786;10.120;2022-10-31T09:52:01;16.30;99.90
11043;DHT22;5574;48.786;10.120;2022-10-31T09:54:34;16.40;99.90
11043;DHT22;5574;48.786;10.120;2022-10-31T09:57:02;16.50;99.90
11043;DHT22;5574;48.786;10.120;2022-10-31T09:59:33;16.60;99.90
11043;DHT22;5574;48.786;10.120;2022-10-31T10:02:05;16.70;99.90
11043;DHT22;5574;48.786;10.120;2022-10-31T10:04:40;16.90;99.90
11043;DHT22;5574;48.786;10.120;2022-10-31T10:07:14;17.00;99.90
11043;DHT22;5574;48.786;10.120;2022-10-31T10:09:43;17.10;99.90
11043;DHT22;5574;48.786;10.120;2022-10-31T10:12:16;17.20;99.90
11043;DHT22;5574;48.786;10.120;2022-10-31T10:14:53;17.40;99.90
11043;DHT22;5574;48.786;10.120;2022-10-31T10:17:32;17.60;99.90
11043;DHT22;5574;48.786;10.120;2022-10-31T10:20:20;17.80;99.90
11043;DHT22;5574;48.786;10.120;2022-10-31T10:22:54;18.00;99.90
11043;DHT22;5574;48.786;10.120;2022-10-31T10:25:31;18.20;99.90
11043;DHT22;5574;48.786;10.120;2022-10-31T10:28:06;18.30;99.90
11043;DHT22;5574;48.786;10.120;2022-10-31T10:30:39;18.50;99.90
11043;DHT22;5574;48.786;10.120;2022-10-31T10:33:11;18.60;99.90
11043;DHT22;5574;48.786;10.120;2022-10-31T10:35:42;18.70;99.90
11043;DHT22;5574;48.786;10.120;2022-10-31T10:38:16;18.90;99.90
11043;DHT22;5574;48.786;10.120;2022-10-31T10:40:44;18.90;99.90
11043;DHT22;5574;48.786;10.120;2022-10-31T10:43:22;19.00;99.90
11043;DHT22;5574;48.786;10.120;2022-10-31T10:45:53;19.00;99.90
11043;DHT22;5574;48.786;10.120;2022-10-31T10:48:45;19.10;99.90
11043;DHT22;5574;48.786;10.120;2022-10-31T10:51:21;19.20;99.90
11043;DHT22;5574;48.786;10.120;2022-10-31T10:53:56;19.30;99.90
11043;DHT22;5574;48.786;10.120;2022-10-31T10:56:37;19.40;99.90
11043;DHT22;5574;48.786;10.120;2022-10-31T10:59:11;19.50;99.90
11043;DHT22;5574;48.786;10.120;2022-10-31T11:01:39;19.50;99.90
11043;DHT22;5574;48.786;10.120;2022-10-31T11:04:21;19.40;99.90
11043;DHT22;5574;48.786;10.120;2022-10-31T11:06:57;19.30;99.90
11043;DHT22;5574;48.786;10.120;2022-10-31T11:09:24;19.20;99.90
11043;DHT22;5574;48.786;10.120;2022-10-31T11:11:51;19.20;99.90
11043;DHT22;5574;48.786;10.120;2022-10-31T11:14:18;19.20;99.90
11043;DHT22;5574;48.786;10.120;2022-10-31T11:16:48;19.20;99.90
11043;DHT22;5574;48.786;10.120;2022-10-31T11:19:19;19.20;99.90
11043;DHT22;5574;48.786;10.120;2022-10-31T11:21:47;19.20;99.90
11043;DHT22;5574;48.786;10.120;2022-10-31T11:24:16;19.10;99.90
11043;DHT22;5574;48.786;10.120;2022-10-31T11:26:45;19.10;99.90
11043;DHT22;5574;48.786;10.120;2022-10-31T11:29:14;19.00;99.90
11043;DHT22;5574;48.786;10.120;2022-10-31T11:31:42;19.00;99.90
11043;DHT22;5574;48.786;10.120;2022-10-31T11:34:18;19.00;99.90
11043;DHT22;5574;48.786;10.120;2022-10-31T11:36:48;19.00;99.90
11043;DHT22;5574;48.786;10.120;2022-10-31T11:39:19;18.90;99.90
11043;DHT22;5574;48.786;10.120;2022-10-31T11:41:48;18.90;99.90
11043;DHT22;5574;48.786;10.120;2022-10-31T11:44:17;19.00;99.90
11043;DHT22;5574;48.786;10.120;2022-10-31T11:46:46;19.00;99.90
11043;DHT22;5574;48.786;10.120;2022-10-31T11:49:17;19.10;99.90
11043;DHT22;5574;48.786;10.120;2022-10-31T11:51:48;19.20;99.90
11043;DHT22;5574;48.786;10.120;2022-10-31T11:54:21;19.30;99.90
11043;DHT22;5574;48.786;10.120;2022-10-31T11:56:48;19.30;99.90
11043;DHT22;5574;48.786;10.120;2022-10-31T11:59:18;19.20;99.90
11043;DHT22;5574;48.786;10.120;2022-10-31T12:01:49;19.30;99.90
11043;DHT22;5574;48.786;10.120;2022-10-31T12:04:17;19.50;99.90
11043;DHT22;5574;48.786;10.120;2022-10-31T12:06:45;19.50;99.90
11043;DHT22;5574;48.786;10.120;2022-10-31T12:09:19;19.70;99.90
11043;DHT22;5574;48.786;10.120;2022-10-31T12:12:09;19.70;99.90
11043;DHT22;5574;48.786;10.120;2022-10-31T12:14:43;19.80;99.90
11043;DHT22;5574;48.786;10.120;2022-10-31T12:17:15;19.90;99.90
11043;DHT22;5574;48.786;10.120;2022-10-31T12:19:52;20.00;99.90
11043;DHT22;5574;48.786;10.120;2022-10-31T12:22:30;20.00;99.90
11043;DHT22;5574;48.786;10.120;2022-10-31T12:28:14;20.10;99.90
11043;DHT22;5574;48.786;10.120;2022-10-31T12:30:53;20.10;99.90
11043;DHT22;5574;48.786;10.120;2022-10-31T12:33:31;20.00;99.90
11043;DHT22;5574;48.786;10.120;2022-10-31T12:36:14;19.90;99.90
11043;DHT22;5574;48.786;10.120;2022-10-31T12:39:02;19.80;99.90
11043;DHT22;5574;48.786;10.120;2022-10-31T12:41:44;19.60;99.90
11043;DHT22;5574;48.786;10.120;2022-10-31T12:44:22;19.60;99.90
11043;DHT22;5574;48.786;10.120;2022-10-31T12:47:05;19.60;99.90
11043;DHT22;5574;48.786;10.120;2022-10-31T12:49:44;19.50;99.90
11043;DHT22;5574;48.786;10.120;2022-10-31T12:52:29;19.40;99.90
11043;DHT22;5574;48.786;10.120;2022-10-31T12:55:13;19.40;99.90
11043;DHT22;5574;48.786;10.120;2022-10-31T12:57:46;19.40;99.90
11043;DHT22;5574;48.786;10.120;2022-10-31T13:00:15;19.30;99.90
11043;DHT22;5574;48.786;10.120;2022-10-31T13:02:46;19.30;99.90
11043;DHT22;5574;48.786;10.120;2022-10-31T13:05:17;19.20;99.90
11043;DHT22;5574;48.786;10.120;2022-10-31T13:07:52;19.30;99.90
11043;DHT22;5574;48.786;10.120;2022-10-31T13:10:21;19.20;99.90
11043;DHT22;5574;48.786;10.120;2022-10-31T13:12:51;19.20;99.90
11043;DHT22;5574;48.786;10.120;2022-10-31T13:15:21;19.20;99.90
11043;DHT22;5574;48.786;10.120;2022-10-31T13:17:51;19.10;99.90
11043;DHT22;5574;48.786;10.120;2022-10-31T13:20:25;19.00;99.90
11043;DHT22;5574;48.786;10.120;2022-10-31T13:22:58;19.00;99.90
11043;DHT22;5574;48.786;10.120;2022-10-31T13:25:30;19.00;99.90
11043;DHT22;5574;48.786;10.120;2022-10-31T13:28:00;19.00;99.90
11043;DHT22;5574;48.786;10.120;2022-10-31T13:30:31;18.80;99.90
11043;DHT22;5574;48.786;10.120;2022-10-31T13:33:03;18.80;99.90
11043;DHT22;5574;48.786;10.120;2022-10-31T13:35:35;18.70;99.90
11043;DHT22;5574;48.786;10.120;2022-10-31T13:38:14;18.70;99.90
11043;DHT22;5574;48.786;10.120;2022-10-31T13:40:47;18.60;99.90
11043;DHT22;5574;48.786;10.120;2022-10-31T13:43:23;18.60;99.90
11043;DHT22;5574;48.786;10.120;2022-10-31T13:45:54;18.50;99.90
11043;DHT22;5574;48.786;10.120;2022-10-31T13:48:38;18.40;99.90
11043;DHT22;5574;48.786;10.120;2022-10-31T13:51:08;18.40;99.90
11043;DHT22;5574;48.786;10.120;2022-10-31T13:53:39;18.30;99.90
11043;DHT22;5574;48.786;10.120;2022-10-31T13:56:15;18.30;99.90
11043;DHT22;5574;48.786;10.120;2022-10-31T14:01:51;18.20;99.90
11043;DHT22;5574;48.786;10.120;2022-10-31T14:04:20;18.10;99.90
11043;DHT22;5574;48.786;10.120;2022-10-31T14:07:04;18.00;99.90
11043;DHT22;5574;48.786;10.120;2022-10-31T14:09:35;18.00;99.90
11043;DHT22;5574;48.786;10.120;2022-10-31T14:12:05;18.00;99.90
11043;DHT22;5574;48.786;10.120;2022-10-31T14:14:45;17.90;99.90
11043;DHT22;5574;48.786;10.120;2022-10-31T14:17:19;17.90;99.90
11043;DHT22;5574;48.786;10.120;2022-10-31T14:20:00;17.90;99.90
11043;DHT22;5574;48.786;10.120;2022-10-31T14:22:31;17.80;99.90
11043;DHT22;5574;48.786;10.120;2022-10-31T14:25:00;17.80;99.90
11043;DHT22;5574;48.786;10.120;2022-10-31T14:27:34;17.80;99.90
11043;DHT22;5574;48.786;10.120;2022-10-31T14:30:21;17.80;99.90
11043;DHT22;5574;48.786;10.120;2022-10-31T14:32:51;17.80;99.90
11043;DHT22;5574;48.786;10.120;2022-10-31T14:35:20;17.70;99.90
11043;DHT22;5574;48.786;10.120;2022-10-31T14:38:18;17.70;99.90
11043;DHT22;5574;48.786;10.120;2022-10-31T14:40:58;17.70;99.90
11043;DHT22;5574;48.786;10.120;2022-10-31T14:43:41;17.70;99.90
11043;DHT22;5574;48.786;10.120;2022-10-31T14:46:17;17.80;99.90
11043;DHT22;5574;48.786;10.120;2022-10-31T14:48:56;17.80;99.90
11043;DHT22;5574;48.786;10.120;2022-10-31T14:51:29;17.90;99.90
11043;DHT22;5574;48.786;10.120;2022-10-31T14:53:59;17.90;99.90
11043;DHT22;5574;48.786;10.120;2022-10-31T14:56:30;17.90;99.90
11043;DHT22;5574;48.786;10.120;2022-10-31T14:59:00;18.00;99.90
11043;DHT22;5574;48.786;10.120;2022-10-31T15:01:31;18.10;99.90
11043;DHT22;5574;48.786;10.120;2022-10-31T15:04:02;18.10;99.90
11043;DHT22;5574;48.786;10.120;2022-10-31T15:06:38;18.10;99.90
11043;DHT22;5574;48.786;10.120;2022-10-31T15:09:21;18.10;99.90
11043;DHT22;5574;48.786;10.120;2022-10-31T15:11:49;18.00;99.90
11043;DHT22;5574;48.786;10.120;2022-10-31T15:14:26;18.00;99.90
11043;DHT22;5574;48.786;10.120;2022-10-31T15:16:55;17.90;99.90
11043;DHT22;5574;48.786;10.120;2022-10-31T15:19:24;17.80;99.90
11043;DHT22;5574;48.786;10.120;2022-10-31T15:21:53;17.80;99.90
11043;DHT22;5574;48.786;10.120;2022-10-31T15:24:22;17.70;99.90
11043;DHT22;5574;48.786;10.120;2022-10-31T15:26:52;17.70;99.90
11043;DHT22;5574;48.786;10.120;2022-10-31T15:29:22;17.60;99.90
11043;DHT22;5574;48.786;10.120;2022-10-31T15:31:50;17.50;99.90
11043;DHT22;5574;48.786;10.120;2022-10-31T15:34:20;17.40;99.90
11043;DHT22;5574;48.786;10.120;2022-10-31T15:36:48;17.30;99.90
11043;DHT22;5574;48.786;10.120;2022-10-31T15:39:15;17.20;99.90
11043;DHT22;5574;48.786;10.120;2022-10-31T15:41:48;17.10;99.90
11043;DHT22;5574;48.786;10.120;2022-10-31T15:44:21;17.00;99.90
11043;DHT22;5574;48.786;10.120;2022-10-31T15:46:55;16.80;99.90
11043;DHT22;5574;48.786;10.120;2022-10-31T15:49:29;16.70;99.90
11043;DHT22;5574;48.786;10.120;2022-10-31T15:52:03;16.60;99.90
11043;DHT22;5574;48.786;10.120;2022-10-31T15:54:30;16.60;99.90
11043;DHT22;5574;48.786;10.120;2022-10-31T15:56:57;16.50;99.90
11043;DHT22;5574;48.786;10.120;2022-10-31T15:59:27;16.50;99.90